Time;durP1;ratioP1;P1;durP2;ratioP2;P2;SDS_P1;SDS_P2;PMS_P1;PMS_P2;Temp;Humidity;BMP_temperature;BMP_pressure;BME280_temperature;BME280_humidity;BME280_pressure;Samples;Min_cycle;Max_cycle;Signal;HPM_P1;HPM_P2
2023/09/29 00:00:51;;;;;;;15.10;4.03;;;15.70;99.90;;;;;;4943314;28;20047;-81
2023/09/29 00:03:17;;;;;;;13.25;3.25;;;15.80;99.90;;;;;;4943326;29;20422;-81
2023/09/29 00:05:47;;;;;;;13.07;3.35;;;15.80;99.90;;;;;;4939632;28;20066;-81
2023/09/29 00:08:16;;;;;;;12.15;3.78;;;16.10;99.90;;;;;;4972852;28;20031;-81
2023/09/29 00:10:45;;;;;;;11.98;3.42;;;15.80;99.90;;;;;;4941434;28;20058;-81
2023/09/29 00:13:11;;;;;;;12.63;3.90;;;15.80;99.90;;;;;;4957933;28;20036;-81
2023/09/29 00:15:38;;;;;;;12.07;3.53;;;15.80;99.90;;;;;;4925490;29;20039;-82
2023/09/29 00:18:05;;;;;;;11.88;3.47;;;15.80;99.90;;;;;;4911900;29;20103;-81
2023/09/29 00:20:31;;;;;;;11.52;3.10;;;15.80;99.90;;;;;;4911833;29;20122;-81
2023/09/29 00:22:59;;;;;;;11.90;3.42;;;15.80;99.90;;;;;;4940247;28;20569;-81
2023/09/29 00:25:25;;;;;;;12.65;3.63;;;15.80;99.90;;;;;;4925114;29;20192;-81
2023/09/29 00:27:51;;;;;;;10.10;3.25;;;15.90;99.90;;;;;;4959412;28;20172;-81
2023/09/29 00:30:17;;;;;;;10.15;3.40;;;15.90;99.90;;;;;;4964964;28;20039;-81
2023/09/29 00:32:45;;;;;;;12.13;3.63;;;15.90;99.90;;;;;;4980354;28;20034;-81
2023/09/29 00:35:11;;;;;;;10.65;3.17;;;15.90;99.90;;;;;;4929027;29;20042;-81
2023/09/29 00:37:37;;;;;;;11.45;3.75;;;15.90;99.90;;;;;;4945037;28;20059;-81
2023/09/29 00:40:12;;;;;;;14.75;3.72;;;15.90;99.90;;;;;;4960974;28;20103;-81
2023/09/29 00:42:38;;;;;;;12.55;3.47;;;15.90;99.90;;;;;;4944526;28;20035;-81
2023/09/29 00:45:06;;;;;;;13.68;3.53;;;15.90;99.90;;;;;;4960123;28;20050;-81
2023/09/29 00:47:32;;;;;;;10.43;3.55;;;15.90;99.90;;;;;;4977586;28;20114;-82
2023/09/29 00:49:59;;;;;;;12.00;3.05;;;15.90;99.90;;;;;;4959543;28;20495;-81
2023/09/29 00:52:27;;;;;;;9.82;3.10;;;15.90;99.90;;;;;;4960918;28;20039;-81
2023/09/29 00:54:53;;;;;;;11.23;3.28;;;15.90;99.90;;;;;;4975186;28;20510;-82
2023/09/29 00:57:20;;;;;;;12.88;3.72;;;15.90;99.90;;;;;;4979007;28;20051;-81
2023/09/29 00:59:46;;;;;;;12.20;3.33;;;15.90;99.90;;;;;;4962747;28;20129;-82
2023/09/29 01:02:13;;;;;;;12.68;3.22;;;15.90;99.90;;;;;;4961932;28;21152;-81
2023/09/29 01:04:39;;;;;;;11.68;3.38;;;15.90;99.90;;;;;;4945409;29;20075;-81
2023/09/29 01:07:06;;;;;;;10.70;3.35;;;15.90;99.90;;;;;;4975321;28;20082;-81
2023/09/29 01:09:32;;;;;;;10.43;3.30;;;15.90;99.90;;;;;;4948836;28;20125;-81
2023/09/29 01:12:00;;;;;;;12.07;3.72;;;15.80;99.90;;;;;;4943279;28;20035;-81
2023/09/29 01:14:26;;;;;;;13.10;3.85;;;15.80;99.90;;;;;;4961282;28;20035;-82
2023/09/29 01:16:51;;;;;;;11.18;3.53;;;15.90;99.90;;;;;;4993776;28;20035;-81
2023/09/29 01:19:18;;;;;;;12.90;3.85;;;15.80;99.90;;;;;;4944264;28;20596;-81
2023/09/29 01:21:46;;;;;;;16.35;4.05;;;15.80;99.90;;;;;;4975007;28;20043;-81
2023/09/29 01:24:13;;;;;;;11.20;3.50;;;15.80;99.90;;;;;;4961485;28;20047;-81
2023/09/29 01:26:41;;;;;;;11.20;3.20;;;15.80;99.90;;;;;;4961495;28;20055;-81
2023/09/29 01:29:07;;;;;;;11.07;3.60;;;15.80;99.90;;;;;;4974817;28;20045;-81
2023/09/29 01:31:34;;;;;;;10.20;3.10;;;15.80;99.90;;;;;;4958592;28;20039;-81
2023/09/29 01:34:05;;;;;;;9.95;3.20;;;15.80;99.90;;;;;;4975971;28;20122;-81
2023/09/29 01:36:31;;;;;;;11.43;3.35;;;15.80;99.90;;;;;;4928650;29;20088;-82
2023/09/29 01:38:57;;;;;;;13.40;3.70;;;15.80;99.90;;;;;;4946546;28;20054;-81
2023/09/29 01:41:24;;;;;;;11.93;3.33;;;15.80;99.90;;;;;;4960296;28;20043;-82
2023/09/29 01:43:50;;;;;;;10.73;3.28;;;15.80;99.90;;;;;;4945555;29;20604;-81
2023/09/29 01:46:16;;;;;;;12.13;3.50;;;15.80;99.90;;;;;;4943524;28;20281;-81
2023/09/29 01:48:42;;;;;;;10.40;3.28;;;15.80;99.90;;;;;;4961406;28;20045;-81
2023/09/29 01:51:08;;;;;;;13.18;3.30;;;15.80;99.90;;;;;;4962601;28;20071;-82
2023/09/29 01:53:34;;;;;;;11.52;3.60;;;15.80;99.90;;;;;;4978230;28;20275;-81
2023/09/29 01:56:01;;;;;;;11.63;3.40;;;15.80;99.90;;;;;;4980119;28;20035;-81
2023/09/29 01:58:27;;;;;;;9.52;3.15;;;15.80;99.90;;;;;;4965197;28;20044;-81
2023/09/29 02:00:54;;;;;;;11.43;3.25;;;15.80;99.90;;;;;;4966343;28;20035;-81
2023/09/29 02:03:21;;;;;;;11.27;3.28;;;15.80;99.90;;;;;;4965653;28;20051;-82
2023/09/29 02:05:47;;;;;;;10.98;3.50;;;15.80;99.90;;;;;;4996410;28;20566;-82
2023/09/29 02:08:13;;;;;;;12.35;4.22;;;15.80;99.90;;;;;;4963564;28;20043;-81
2023/09/29 02:10:39;;;;;;;12.73;3.92;;;15.80;99.90;;;;;;4981762;28;20059;-81
2023/09/29 02:13:04;;;;;;;11.32;3.78;;;15.80;99.90;;;;;;4963669;28;20473;-81
2023/09/29 02:15:34;;;;;;;11.57;3.35;;;15.80;99.90;;;;;;4961333;28;20047;-81
2023/09/29 02:18:11;;;;;;;14.80;3.83;;;15.80;99.90;;;;;;4961974;28;20050;-82
2023/09/29 02:20:46;;;;;;;13.25;4.00;;;15.80;99.90;;;;;;4980405;28;20472;-82
2023/09/29 02:23:14;;;;;;;14.38;3.53;;;15.80;99.90;;;;;;4965026;28;20046;-82
2023/09/29 02:25:41;;;;;;;11.73;3.60;;;15.80;99.90;;;;;;4980013;28;20184;-81
2023/09/29 02:28:09;;;;;;;9.32;2.88;;;15.80;99.90;;;;;;4966229;28;20126;-82
2023/09/29 02:30:36;;;;;;;12.60;3.30;;;15.90;99.90;;;;;;4965935;28;20080;-81
2023/09/29 02:33:02;;;;;;;13.02;3.80;;;15.90;99.90;;;;;;4975731;28;20039;-81
2023/09/29 02:35:28;;;;;;;10.80;3.40;;;15.90;99.90;;;;;;4978947;28;20405;-81
2023/09/29 02:37:54;;;;;;;13.90;3.55;;;15.90;99.90;;;;;;4946556;28;20404;-81
2023/09/29 02:40:22;;;;;;;12.00;3.75;;;15.90;99.90;;;;;;4978262;28;20396;-81
2023/09/29 02:42:49;;;;;;;10.02;3.08;;;15.90;99.90;;;;;;4948486;28;20031;-81
2023/09/29 02:45:15;;;;;;;10.55;3.22;;;15.90;99.90;;;;;;4946508;28;20046;-81
2023/09/29 02:47:42;;;;;;;14.18;3.72;;;15.90;99.90;;;;;;4963895;28;20486;-81
2023/09/29 02:50:12;;;;;;;11.80;3.28;;;15.90;99.90;;;;;;4963013;28;20039;-81
2023/09/29 02:52:39;;;;;;;11.30;3.72;;;15.90;99.90;;;;;;4963887;28;20050;-81
2023/09/29 02:55:07;;;;;;;10.25;2.92;;;15.90;99.90;;;;;;4961896;28;20039;-81
2023/09/29 02:57:33;;;;;;;11.43;3.35;;;15.90;99.90;;;;;;4962876;28;20298;-81
2023/09/29 02:59:59;;;;;;;12.55;3.67;;;15.90;99.90;;;;;;4978591;28;20043;-81
2023/09/29 03:02:25;;;;;;;12.70;3.38;;;15.90;99.90;;;;;;4962892;28;20126;-81
2023/09/29 03:04:51;;;;;;;10.38;3.17;;;15.80;99.90;;;;;;4959933;28;20181;-82
2023/09/29 03:07:17;;;;;;;11.88;3.80;;;15.90;99.90;;;;;;4963397;28;20039;-81
2023/09/29 03:09:43;;;;;;;13.27;3.92;;;15.80;99.90;;;;;;4967092;28;20401;-81
2023/09/29 03:12:09;;;;;;;10.70;3.50;;;15.80;99.90;;;;;;4947659;28;20039;-81
2023/09/29 03:14:35;;;;;;;12.38;3.50;;;15.80;99.90;;;;;;4961786;28;20035;-81
2023/09/29 03:17:01;;;;;;;10.05;3.20;;;15.80;99.90;;;;;;4960907;28;20445;-81
2023/09/29 03:19:27;;;;;;;11.60;3.58;;;15.80;99.90;;;;;;4933044;29;20147;-81
2023/09/29 03:21:53;;;;;;;10.98;2.83;;;15.80;99.90;;;;;;4963831;28;20093;-81
2023/09/29 03:24:20;;;;;;;9.57;3.25;;;15.80;99.90;;;;;;4963909;28;20062;-81
2023/09/29 03:26:46;;;;;;;10.90;3.30;;;15.80;99.90;;;;;;4944657;28;20123;-81
2023/09/29 03:29:12;;;;;;;10.13;2.95;;;15.80;99.90;;;;;;4945873;28;20042;-82
2023/09/29 03:31:38;;;;;;;12.93;3.38;;;15.80;99.90;;;;;;4946717;28;20035;-81
2023/09/29 03:34:04;;;;;;;11.40;3.20;;;15.80;99.90;;;;;;4979494;28;20068;-81
2023/09/29 03:36:30;;;;;;;9.88;2.90;;;15.80;99.90;;;;;;4962808;28;20055;-81
2023/09/29 03:38:56;;;;;;;12.52;3.08;;;15.80;99.90;;;;;;4981188;28;20047;-81
2023/09/29 03:41:25;;;;;;;10.60;3.17;;;15.80;99.90;;;;;;4976746;28;20117;-81
2023/09/29 03:43:52;;;;;;;11.02;3.28;;;15.90;99.90;;;;;;4961689;28;20075;-81
2023/09/29 03:46:21;;;;;;;11.20;3.20;;;15.90;99.90;;;;;;4978144;28;20043;-81
2023/09/29 03:48:47;;;;;;;10.43;3.00;;;15.90;99.90;;;;;;4961794;28;20094;-81
2023/09/29 03:51:23;;;;;;;11.15;2.92;;;15.90;99.90;;;;;;4929218;28;20039;-81
2023/09/29 03:53:50;;;;;;;12.25;3.28;;;15.90;99.90;;;;;;4946536;29;20035;-81
2023/09/29 03:56:16;;;;;;;10.52;3.10;;;15.90;99.90;;;;;;4961996;28;20126;-81
2023/09/29 03:58:43;;;;;;;11.07;3.28;;;15.90;99.90;;;;;;4978750;28;20324;-81
2023/09/29 04:01:08;;;;;;;11.40;3.25;;;15.90;99.90;;;;;;4960967;28;20047;-81
2023/09/29 04:03:34;;;;;;;13.73;3.58;;;15.90;99.90;;;;;;4948756;28;20040;-81
2023/09/29 04:06:00;;;;;;;13.23;3.28;;;16.00;99.90;;;;;;4977276;28;20035;-81
2023/09/29 04:08:26;;;;;;;9.95;3.38;;;15.90;99.90;;;;;;4961928;28;20035;-81
2023/09/29 04:10:53;;;;;;;9.35;3.40;;;16.00;99.90;;;;;;4979314;28;20035;-81
2023/09/29 04:13:19;;;;;;;10.43;3.22;;;16.00;99.90;;;;;;4961978;28;20658;-81
2023/09/29 04:15:44;;;;;;;10.15;3.13;;;16.00;99.90;;;;;;4978095;28;20573;-81
2023/09/29 04:18:10;;;;;;;11.55;3.55;;;16.00;99.90;;;;;;4963077;28;20110;-81
2023/09/29 04:20:36;;;;;;;10.27;3.45;;;16.10;99.90;;;;;;4961212;28;20045;-81
2023/09/29 04:23:01;;;;;;;10.50;3.35;;;16.10;99.90;;;;;;4944082;28;20560;-81
2023/09/29 04:25:27;;;;;;;11.20;3.53;;;16.10;99.90;;;;;;4978562;28;20143;-81
2023/09/29 04:27:53;;;;;;;9.35;3.05;;;16.10;99.90;;;;;;4959869;28;20118;-81
2023/09/29 04:30:18;;;;;;;11.48;3.42;;;16.10;99.90;;;;;;4942701;28;20126;-81
2023/09/29 04:32:47;;;;;;;10.05;3.72;;;16.10;99.90;;;;;;4976382;28;20094;-81
2023/09/29 04:35:12;;;;;;;15.00;4.00;;;16.20;99.90;;;;;;4989761;28;20040;-81
2023/09/29 04:37:38;;;;;;;9.70;3.10;;;16.20;99.90;;;;;;4960383;28;20062;-81
2023/09/29 04:40:05;;;;;;;12.13;3.50;;;16.20;99.90;;;;;;4975291;28;20580;-81
2023/09/29 04:42:31;;;;;;;12.65;2.97;;;16.20;99.90;;;;;;4973398;28;20047;-82
2023/09/29 04:44:57;;;;;;;12.55;3.58;;;16.20;99.90;;;;;;4926517;28;20046;-81
2023/09/29 04:47:22;;;;;;;11.93;3.00;;;16.40;99.90;;;;;;4959755;28;20047;-81
2023/09/29 04:49:49;;;;;;;10.45;3.13;;;16.20;99.90;;;;;;4943283;28;20490;-82
2023/09/29 04:52:16;;;;;;;9.63;2.83;;;16.30;99.90;;;;;;4973272;28;20062;-82
2023/09/29 04:54:41;;;;;;;11.95;3.20;;;16.30;99.90;;;;;;4958379;28;20513;-82
2023/09/29 04:57:07;;;;;;;10.60;3.30;;;16.30;99.90;;;;;;4974395;28;20042;-82
2023/09/29 04:59:33;;;;;;;12.30;3.65;;;16.30;99.90;;;;;;4969171;28;20047;-82
2023/09/29 05:01:58;;;;;;;8.82;3.10;;;16.30;99.90;;;;;;4973783;28;20047;-82
2023/09/29 05:04:24;;;;;;;11.95;3.33;;;16.30;99.90;;;;;;4959903;28;20293;-82
2023/09/29 05:06:51;;;;;;;10.63;3.38;;;16.30;99.90;;;;;;4977650;28;20489;-82
2023/09/29 05:09:18;;;;;;;10.80;3.28;;;16.30;99.90;;;;;;4961485;28;20050;-82
2023/09/29 05:11:43;;;;;;;11.65;2.92;;;16.40;99.90;;;;;;4960938;28;20043;-82
2023/09/29 05:14:10;;;;;;;12.30;3.50;;;16.40;99.90;;;;;;4994823;28;21476;-82
2023/09/29 05:16:35;;;;;;;10.80;3.03;;;16.40;99.90;;;;;;4977127;28;20047;-82
2023/09/29 05:19:01;;;;;;;10.50;3.42;;;16.40;99.90;;;;;;4945946;29;20049;-82
2023/09/29 05:21:27;;;;;;;9.52;3.53;;;16.50;99.90;;;;;;4977271;28;20047;-82
2023/09/29 05:23:53;;;;;;;10.77;3.15;;;16.40;99.90;;;;;;4959426;28;20046;-82
2023/09/29 05:26:18;;;;;;;12.18;3.60;;;16.40;99.90;;;;;;4963605;28;20497;-82
2023/09/29 05:28:44;;;;;;;9.90;3.40;;;16.40;99.90;;;;;;4981397;28;20054;-81
2023/09/29 05:31:11;;;;;;;9.43;3.35;;;16.40;99.90;;;;;;4962697;28;20523;-81
2023/09/29 05:33:36;;;;;;;11.00;3.30;;;16.40;99.90;;;;;;4976598;28;20031;-82
2023/09/29 05:36:03;;;;;;;9.60;3.50;;;16.50;99.90;;;;;;4948144;28;20416;-82
2023/09/29 05:38:29;;;;;;;11.23;3.53;;;16.40;99.90;;;;;;4952130;28;20454;-82
2023/09/29 05:40:54;;;;;;;11.43;3.25;;;16.40;99.90;;;;;;5002063;28;20182;-82
2023/09/29 05:43:20;;;;;;;9.38;3.40;;;16.50;99.90;;;;;;4984891;28;20628;-82
2023/09/29 05:45:47;;;;;;;10.13;3.53;;;16.50;99.90;;;;;;4936634;29;20047;-82
2023/09/29 05:48:13;;;;;;;9.18;3.05;;;16.50;99.90;;;;;;4985933;28;20051;-82
2023/09/29 05:50:39;;;;;;;9.82;3.47;;;16.50;99.90;;;;;;4969470;28;20110;-82
2023/09/29 05:53:05;;;;;;;7.97;3.20;;;16.50;99.90;;;;;;4967387;28;20519;-82
2023/09/29 05:55:31;;;;;;;9.38;3.75;;;16.50;99.90;;;;;;4985449;28;20129;-84
2023/09/29 05:57:57;;;;;;;11.23;3.53;;;16.50;99.90;;;;;;4969434;28;20130;-84
2023/09/29 06:00:25;;;;;;;9.18;3.30;;;16.50;99.90;;;;;;4969226;28;20302;-84
2023/09/29 06:02:51;;;;;;;10.02;3.55;;;16.50;99.90;;;;;;4984225;28;20039;-84
2023/09/29 06:05:17;;;;;;;10.27;3.55;;;16.40;99.90;;;;;;4967811;28;20094;-84
2023/09/29 06:07:45;;;;;;;9.93;3.38;;;16.40;99.90;;;;;;4985467;28;20066;-83
2023/09/29 06:10:11;;;;;;;10.60;3.60;;;16.40;99.90;;;;;;4985284;28;20473;-83
2023/09/29 06:12:37;;;;;;;11.15;3.40;;;16.40;99.90;;;;;;4985103;28;20051;-83
2023/09/29 06:15:04;;;;;;;11.05;3.80;;;16.40;99.90;;;;;;4963612;28;20039;-83
2023/09/29 06:17:30;;;;;;;9.80;3.70;;;16.40;99.90;;;;;;4964541;28;20047;-83
2023/09/29 06:19:56;;;;;;;10.65;3.80;;;16.40;99.90;;;;;;4979513;28;20039;-82
2023/09/29 06:22:22;;;;;;;9.48;3.47;;;16.40;99.90;;;;;;4928797;29;20084;-83
2023/09/29 06:24:47;;;;;;;11.68;3.67;;;16.40;99.90;;;;;;4958607;28;20043;-83
2023/09/29 06:27:14;;;;;;;11.05;3.83;;;16.40;99.90;;;;;;4979348;28;20039;-83
2023/09/29 06:29:39;;;;;;;11.07;3.60;;;16.40;99.90;;;;;;4964653;28;20035;-83
2023/09/29 06:32:08;;;;;;;11.45;3.53;;;16.40;99.90;;;;;;4977519;28;20031;-83
2023/09/29 06:34:37;;;;;;;9.93;3.60;;;16.50;99.90;;;;;;4978562;28;20517;-82
2023/09/29 06:37:03;;;;;;;10.82;3.85;;;16.50;99.90;;;;;;4961414;28;20051;-82
2023/09/29 06:39:29;;;;;;;9.82;3.22;;;16.40;99.90;;;;;;4983092;28;20047;-82
2023/09/29 06:41:55;;;;;;;9.18;3.45;;;16.50;99.90;;;;;;4934348;29;20780;-82
2023/09/29 06:44:22;;;;;;;9.65;3.30;;;16.50;99.90;;;;;;4962440;28;20043;-82
2023/09/29 06:46:48;;;;;;;9.57;3.75;;;16.50;99.90;;;;;;4959175;28;20047;-82
2023/09/29 06:49:13;;;;;;;9.85;3.70;;;16.50;99.90;;;;;;4993485;28;20045;-82
2023/09/29 06:51:39;;;;;;;12.10;4.15;;;16.50;99.90;;;;;;4963303;28;20035;-82
2023/09/29 06:54:05;;;;;;;10.07;3.70;;;16.50;99.90;;;;;;4976066;28;20044;-83
2023/09/29 06:56:31;;;;;;;9.85;3.90;;;16.50;99.90;;;;;;4980082;28;20047;-82
2023/09/29 06:58:57;;;;;;;11.18;4.10;;;16.50;99.90;;;;;;4976872;28;20047;-83
2023/09/29 07:01:27;;;;;;;10.15;3.70;;;16.50;99.90;;;;;;4959296;28;20055;-82
2023/09/29 07:03:53;;;;;;;11.27;3.85;;;16.50;99.90;;;;;;4977786;28;20051;-82
2023/09/29 07:06:24;;;;;;;10.32;4.03;;;16.60;99.90;;;;;;4958969;28;20126;-82
2023/09/29 07:08:51;;;;;;;12.63;4.20;;;16.70;99.90;;;;;;4944104;28;20032;-82
2023/09/29 07:11:16;;;;;;;11.50;4.13;;;16.70;99.90;;;;;;4976384;28;20051;-82
2023/09/29 07:13:42;;;;;;;11.73;3.92;;;16.70;99.90;;;;;;4977338;28;20050;-81
2023/09/29 07:16:08;;;;;;;11.63;4.35;;;16.80;99.90;;;;;;4958123;28;20469;-83
2023/09/29 07:18:34;;;;;;;11.35;4.30;;;16.80;99.90;;;;;;4990817;28;20053;-82
2023/09/29 07:21:00;;;;;;;10.32;4.00;;;16.80;99.90;;;;;;4944023;28;20409;-82
2023/09/29 07:23:25;;;;;;;12.13;4.20;;;16.90;99.90;;;;;;4961457;28;20134;-82
2023/09/29 07:25:52;;;;;;;9.20;3.72;;;17.00;99.90;;;;;;4995033;28;20242;-82
2023/09/29 07:28:18;;;;;;;11.10;3.78;;;17.00;99.90;;;;;;4978239;28;20098;-82
2023/09/29 07:30:45;;;;;;;11.23;3.70;;;17.10;99.90;;;;;;4962584;28;20070;-82
2023/09/29 07:33:11;;;;;;;10.18;3.92;;;17.10;99.90;;;;;;4978408;28;20174;-82
2023/09/29 07:35:37;;;;;;;10.07;3.90;;;17.20;99.90;;;;;;4962451;28;20058;-82
2023/09/29 07:38:04;;;;;;;8.57;3.58;;;17.20;99.90;;;;;;4963080;28;20555;-82
2023/09/29 07:40:32;;;;;;;11.13;3.95;;;17.30;99.90;;;;;;4979617;28;20046;-82
2023/09/29 07:42:57;;;;;;;10.30;3.70;;;17.30;99.90;;;;;;4979384;28;20031;-82
2023/09/29 07:45:23;;;;;;;9.77;3.80;;;17.30;99.90;;;;;;4946223;28;20416;-82
2023/09/29 07:47:49;;;;;;;10.55;3.58;;;17.30;99.90;;;;;;4977203;28;20035;-82
2023/09/29 07:50:15;;;;;;;9.63;3.80;;;17.40;99.90;;;;;;4963380;28;20129;-82
2023/09/29 07:52:41;;;;;;;9.75;3.72;;;17.50;99.90;;;;;;4962653;28;20051;-82
2023/09/29 07:55:07;;;;;;;12.30;3.75;;;17.60;99.90;;;;;;4976047;28;20039;-82
2023/09/29 07:57:33;;;;;;;9.48;3.67;;;17.60;99.90;;;;;;4973615;28;20182;-82
2023/09/29 07:59:59;;;;;;;8.98;3.28;;;17.70;99.90;;;;;;4984813;28;20121;-82
2023/09/29 08:02:26;;;;;;;9.65;3.40;;;17.80;99.90;;;;;;4962228;28;20181;-82
2023/09/29 08:04:52;;;;;;;8.50;3.20;;;17.90;99.90;;;;;;4977867;28;20126;-82
2023/09/29 08:07:19;;;;;;;7.93;3.20;;;18.00;99.90;;;;;;4946728;28;20177;-82
2023/09/29 08:09:48;;;;;;;10.45;3.00;;;18.10;99.90;;;;;;4945465;28;20050;-82
2023/09/29 08:12:14;;;;;;;8.85;3.63;;;18.20;99.90;;;;;;4977525;28;20444;-82
2023/09/29 08:14:40;;;;;;;9.82;3.25;;;18.40;99.90;;;;;;4960594;28;20042;-82
2023/09/29 08:17:06;;;;;;;8.55;2.63;;;18.40;99.90;;;;;;4975773;28;20043;-82
2023/09/29 08:19:34;;;;;;;8.38;3.10;;;18.50;99.90;;;;;;4958122;28;20066;-82
2023/09/29 08:21:59;;;;;;;8.20;3.13;;;18.60;99.90;;;;;;4974046;28;20669;-82
2023/09/29 08:24:25;;;;;;;8.50;3.10;;;18.60;99.90;;;;;;4990770;28;20317;-82
2023/09/29 08:26:51;;;;;;;7.55;2.78;;;18.70;99.90;;;;;;4961050;28;20042;-82
2023/09/29 08:29:17;;;;;;;9.20;2.95;;;18.70;99.90;;;;;;4944778;28;20485;-82
2023/09/29 08:31:43;;;;;;;8.60;2.95;;;18.70;99.90;;;;;;4975197;28;20039;-82
2023/09/29 08:34:09;;;;;;;8.07;2.67;;;18.80;99.90;;;;;;4926172;29;20042;-82
2023/09/29 08:36:35;;;;;;;7.28;2.83;;;18.80;99.90;;;;;;4960530;28;20060;-82
2023/09/29 08:39:01;;;;;;;7.82;2.88;;;18.90;99.90;;;;;;4957230;28;20118;-81
2023/09/29 08:41:29;;;;;;;8.32;2.83;;;19.00;99.90;;;;;;4958531;28;20393;-82
2023/09/29 08:43:55;;;;;;;9.23;3.40;;;19.00;99.90;;;;;;4976382;28;20521;-82
2023/09/29 08:46:21;;;;;;;7.80;2.67;;;19.10;99.90;;;;;;4944655;28;20079;-82
2023/09/29 08:48:48;;;;;;;9.35;3.00;;;19.10;99.90;;;;;;4960460;28;20580;-82
2023/09/29 08:51:15;;;;;;;10.73;3.03;;;19.20;99.90;;;;;;4977902;28;20042;-81
2023/09/29 08:53:42;;;;;;;8.65;2.97;;;19.30;99.90;;;;;;4931492;29;20075;-82
2023/09/29 08:56:12;;;;;;;7.72;2.63;;;19.40;99.90;;;;;;4982063;28;20560;-82
2023/09/29 08:58:38;;;;;;;7.18;2.80;;;19.50;99.90;;;;;;4951205;28;20108;-82
2023/09/29 09:01:05;;;;;;;7.88;2.90;;;19.50;99.90;;;;;;4966514;28;20043;-82
2023/09/29 09:03:31;;;;;;;7.97;2.72;;;19.60;99.90;;;;;;4966193;28;20066;-81
2023/09/29 09:05:57;;;;;;;7.82;2.63;;;19.70;99.90;;;;;;4980513;28;20126;-82
2023/09/29 09:08:24;;;;;;;8.20;2.50;;;19.80;99.90;;;;;;4964142;28;20036;-82
2023/09/29 09:10:58;;;;;;;8.35;2.70;;;19.80;99.90;;;;;;4961732;28;20042;-81
2023/09/29 09:13:26;;;;;;;9.10;3.17;;;20.00;99.90;;;;;;4980698;28;20508;-82
2023/09/29 09:15:56;;;;;;;8.70;2.67;;;20.00;99.90;;;;;;4966473;28;20039;-82
2023/09/29 09:18:24;;;;;;;6.80;2.42;;;20.00;99.90;;;;;;4974654;28;20306;-83
2023/09/29 09:20:52;;;;;;;7.20;2.50;;;19.90;99.90;;;;;;4965086;28;20039;-82
2023/09/29 09:23:18;;;;;;;8.90;2.40;;;19.90;99.90;;;;;;4964142;28;20069;-82
2023/09/29 09:25:44;;;;;;;9.85;2.80;;;19.80;99.90;;;;;;4980371;28;20524;-82
2023/09/29 09:28:22;;;;;;;6.25;2.25;;;19.80;99.90;;;;;;4978917;28;20081;-82
2023/09/29 09:30:51;;;;;;;7.93;2.40;;;19.90;99.90;;;;;;4980820;28;20035;-81
2023/09/29 09:33:21;;;;;;;6.78;2.50;;;19.90;99.90;;;;;;4980667;28;20515;-82
2023/09/29 09:35:50;;;;;;;7.22;2.72;;;20.00;99.90;;;;;;4980183;28;20872;-82
2023/09/29 09:38:16;;;;;;;7.30;2.40;;;20.10;99.90;;;;;;4963993;28;20061;-82
2023/09/29 09:40:47;;;;;;;6.95;2.53;;;20.20;99.90;;;;;;4980269;28;20118;-82
2023/09/29 09:43:13;;;;;;;8.02;2.63;;;20.40;99.90;;;;;;4981462;28;20497;-82
2023/09/29 09:45:42;;;;;;;7.20;2.50;;;20.40;99.90;;;;;;4948789;29;20095;-82
2023/09/29 09:48:09;;;;;;;8.82;2.70;;;20.50;99.90;;;;;;4962528;28;20085;-81
2023/09/29 09:50:36;;;;;;;8.25;2.85;;;20.60;99.90;;;;;;4948342;28;20584;-82
2023/09/29 09:53:08;;;;;;;7.38;2.50;;;20.60;99.90;;;;;;4981364;28;20552;-82
2023/09/29 09:55:37;;;;;;;8.13;2.70;;;20.80;99.90;;;;;;4964391;28;20051;-82
2023/09/29 09:58:10;;;;;;;6.90;2.55;;;20.80;99.90;;;;;;4949226;28;20547;-81
2023/09/29 10:00:39;;;;;;;7.53;2.58;;;20.80;99.90;;;;;;4994657;28;20386;-82
2023/09/29 10:03:11;;;;;;;7.57;2.90;;;20.80;99.90;;;;;;4980101;28;20031;-82
2023/09/29 10:05:41;;;;;;;8.52;2.85;;;20.80;99.90;;;;;;4962279;28;20050;-81
2023/09/29 10:08:10;;;;;;;6.97;2.22;;;20.70;99.90;;;;;;4980513;28;20051;-81
2023/09/29 10:10:41;;;;;;;7.32;2.53;;;20.70;99.90;;;;;;4964215;28;20110;-82
2023/09/29 10:13:11;;;;;;;6.72;2.30;;;20.70;99.90;;;;;;4980050;28;20043;-82
2023/09/29 10:15:41;;;;;;;9.15;2.45;;;20.70;99.90;;;;;;4999862;28;20160;-82
2023/09/29 10:18:17;;;;;;;6.97;2.13;;;20.80;99.90;;;;;;4962265;28;20039;-82
2023/09/29 10:20:43;;;;;;;6.90;2.55;;;20.90;99.90;;;;;;4963784;28;20425;-82
2023/09/29 10:23:13;;;;;;;7.05;2.40;;;21.00;99.90;;;;;;4974801;28;20039;-82
2023/09/29 10:25:42;;;;;;;7.22;2.72;;;21.00;99.90;;;;;;4965144;28;20504;-82
2023/09/29 10:28:08;;;;;;;7.88;2.65;;;21.00;99.90;;;;;;4962874;28;20035;-83
2023/09/29 10:30:35;;;;;;;7.13;2.42;;;21.00;99.90;;;;;;4978386;28;20481;-83
2023/09/29 10:33:13;;;;;;;7.25;2.40;;;21.00;99.90;;;;;;4966414;28;20270;-83
2023/09/29 10:35:44;;;;;;;7.75;2.50;;;21.00;99.90;;;;;;4976365;28;20568;-83
2023/09/29 10:38:23;;;;;;;12.27;2.83;;;21.00;99.90;;;;;;4945908;28;20090;-82
2023/09/29 10:40:50;;;;;;;8.75;2.92;;;20.90;99.90;;;;;;4994096;28;20294;-83
2023/09/29 10:43:26;;;;;;;8.02;2.45;;;20.90;99.90;;;;;;4981510;28;20070;-82
2023/09/29 10:45:52;;;;;;;9.02;2.72;;;20.90;99.90;;;;;;4947125;28;20039;-82
2023/09/29 10:48:21;;;;;;;7.47;2.55;;;20.90;99.90;;;;;;4976702;28;20043;-82
2023/09/29 10:50:51;;;;;;;8.07;2.83;;;20.80;99.90;;;;;;4959035;28;20379;-82
2023/09/29 10:53:23;;;;;;;7.32;2.60;;;20.70;99.90;;;;;;4993104;28;20058;-83
2023/09/29 10:55:50;;;;;;;6.85;2.47;;;20.60;99.90;;;;;;4961700;28;20393;-83
2023/09/29 10:58:18;;;;;;;7.47;2.80;;;20.50;99.90;;;;;;4963462;28;20789;-83
2023/09/29 11:00:49;;;;;;;7.70;2.60;;;20.40;99.90;;;;;;4947477;28;20050;-82
2023/09/29 11:03:21;;;;;;;6.53;2.47;;;20.40;99.90;;;;;;4979336;28;20047;-82
2023/09/29 11:05:53;;;;;;;8.45;2.80;;;20.30;99.90;;;;;;4979321;28;20054;-83
2023/09/29 11:08:20;;;;;;;9.27;2.70;;;20.20;99.90;;;;;;4946733;28;20067;-82
2023/09/29 11:11:12;;;;;;;7.10;2.70;;;20.10;99.90;;;;;;4961860;28;20119;-83
2023/09/29 11:13:38;;;;;;;7.57;2.90;;;20.10;99.90;;;;;;4929331;29;20643;-83
2023/09/29 11:16:15;;;;;;;7.45;2.83;;;20.10;99.90;;;;;;4947651;29;20310;-82
2023/09/29 11:18:41;;;;;;;9.18;3.00;;;20.20;99.90;;;;;;4961745;28;22110;-83
2023/09/29 11:21:11;;;;;;;8.18;2.72;;;20.20;99.90;;;;;;4961680;28;20054;-82
2023/09/29 11:23:43;;;;;;;8.25;3.25;;;20.30;99.90;;;;;;4995969;28;20418;-82
2023/09/29 11:26:10;;;;;;;9.25;2.90;;;20.30;99.90;;;;;;4978352;28;20186;-83
2023/09/29 11:28:43;;;;;;;8.50;2.83;;;20.30;99.90;;;;;;4980104;28;20035;-83
2023/09/29 11:31:15;;;;;;;8.30;2.80;;;20.20;99.90;;;;;;4977998;28;21638;-82
2023/09/29 11:33:41;;;;;;;8.25;3.05;;;20.20;99.90;;;;;;4979070;28;20043;-83
2023/09/29 11:36:18;;;;;;;7.50;2.80;;;20.20;99.90;;;;;;4961707;28;20043;-82
2023/09/29 11:38:45;;;;;;;9.55;2.88;;;20.20;99.90;;;;;;4978903;28;20054;-82
2023/09/29 11:41:11;;;;;;;8.80;3.10;;;20.10;99.90;;;;;;4959979;28;20043;-82
2023/09/29 11:43:40;;;;;;;8.52;3.10;;;20.10;99.90;;;;;;4945819;29;20049;-82
2023/09/29 11:46:06;;;;;;;7.90;3.30;;;20.10;99.90;;;;;;4979359;28;20402;-82
2023/09/29 11:48:32;;;;;;;10.77;3.15;;;20.10;99.90;;;;;;4961944;28;20097;-83
2023/09/29 11:50:57;;;;;;;9.68;3.53;;;20.10;99.90;;;;;;4977540;28;20050;-82
2023/09/29 11:53:23;;;;;;;10.98;3.35;;;20.00;99.90;;;;;;4978432;28;20039;-82
2023/09/29 11:55:49;;;;;;;9.88;2.95;;;20.00;99.90;;;;;;4944871;28;20122;-82
2023/09/29 11:58:15;;;;;;;8.27;3.08;;;19.90;99.90;;;;;;4962235;28;20125;-86
2023/09/29 12:00:41;;;;;;;8.48;2.95;;;19.80;99.90;;;;;;4978996;28;20634;-84
2023/09/29 12:03:11;;;;;;;8.40;3.08;;;19.80;99.90;;;;;;4977483;28;20039;-84
2023/09/29 12:05:37;;;;;;;9.10;3.42;;;19.70;99.90;;;;;;4978972;28;20035;-84
2023/09/29 12:08:04;;;;;;;9.77;3.45;;;19.70;99.90;;;;;;4947011;28;20176;-85
2023/09/29 12:10:30;;;;;;;9.60;3.30;;;19.70;99.90;;;;;;4977237;28;20291;-84
2023/09/29 12:12:58;;;;;;;9.48;3.53;;;19.70;99.90;;;;;;4962025;28;20039;-84
2023/09/29 12:15:24;;;;;;;9.73;3.38;;;19.70;99.90;;;;;;4962659;28;20378;-83
2023/09/29 12:17:50;;;;;;;10.68;3.80;;;19.70;99.90;;;;;;4960610;28;20082;-82
2023/09/29 12:20:17;;;;;;;9.25;3.67;;;19.60;99.90;;;;;;4945352;28;20043;-82
2023/09/29 12:22:44;;;;;;;8.55;3.03;;;19.60;99.90;;;;;;4945422;28;20081;-83
2023/09/29 12:25:14;;;;;;;8.18;3.45;;;19.50;99.90;;;;;;4977859;28;20039;-83
2023/09/29 12:27:44;;;;;;;9.05;3.30;;;19.50;99.90;;;;;;4978348;28;20469;-83
2023/09/29 12:30:12;;;;;;;7.65;3.00;;;19.60;99.90;;;;;;4978989;28;20047;-83
2023/09/29 12:32:42;;;;;;;9.63;3.83;;;19.60;99.90;;;;;;4977206;28;20378;-84
2023/09/29 12:35:15;;;;;;;7.97;2.65;;;19.50;99.90;;;;;;4961913;28;20031;-83
2023/09/29 12:37:44;;;;;;;4.60;1.60;;;19.30;99.90;;;;;;4962264;28;20286;-85
2023/09/29 12:40:12;;;;;;;4.57;1.50;;;19.00;99.90;;;;;;4977445;28;20497;-84